createdAt,value
2023-05-18T00:00:01.332Z,4.3
2023-05-18T00:02:01.754Z,4.3
2023-05-18T00:04:00.821Z,4.3
2023-05-18T00:06:01.014Z,4.2
2023-05-18T00:08:00.658Z,4.3
2023-05-18T00:10:00.499Z,4.3
2023-05-18T00:12:01.927Z,4.4
2023-05-18T00:14:00.482Z,4.4
2023-05-18T00:16:00.976Z,4.4
2023-05-18T00:18:00.466Z,4.8
2023-05-18T00:20:00.919Z,5.1
2023-05-18T00:22:00.422Z,5.0
2023-05-18T00:24:00.843Z,4.8
2023-05-18T00:26:01.841Z,4.7
2023-05-18T00:28:00.956Z,4.7
2023-05-18T00:30:00.528Z,4.5
2023-05-18T00:32:00.456Z,4.4
2023-05-18T00:34:00.709Z,4.3
2023-05-18T00:36:00.419Z,4.3
2023-05-18T00:38:00.742Z,4.2
2023-05-18T00:40:00.719Z,4.2
2023-05-18T00:42:00.454Z,4.1
2023-05-18T00:44:00.897Z,4.0
2023-05-18T00:46:00.579Z,4.0
2023-05-18T00:48:00.601Z,4.1
2023-05-18T00:50:01.002Z,4.1
2023-05-18T00:52:02.623Z,4.1
2023-05-18T00:54:01.203Z,4.0
2023-05-18T00:56:00.725Z,4.0
2023-05-18T00:58:00.502Z,3.9
2023-05-18T01:00:01.536Z,3.8
2023-05-18T01:02:00.602Z,3.8
2023-05-18T01:04:01.794Z,3.8
2023-05-18T01:06:00.404Z,3.8
2023-05-18T01:08:02.492Z,3.7
2023-05-18T01:10:00.492Z,3.7
2023-05-18T01:12:10.262Z,3.7
2023-05-18T01:14:06.024Z,3.6
2023-05-18T01:16:06.761Z,3.5
2023-05-18T01:18:09.537Z,3.5
2023-05-18T01:20:16.492Z,3.5
2023-05-18T01:22:11.834Z,3.5
2023-05-18T01:24:19.186Z,3.5
2023-05-18T01:26:12.186Z,3.5
2023-05-18T01:28:04.550Z,3.5
2023-05-18T01:30:01.290Z,3.5
2023-05-18T01:32:00.648Z,3.4
2023-05-18T01:34:00.624Z,3.4
2023-05-18T01:36:01.030Z,3.4
2023-05-18T01:38:00.916Z,3.4
2023-05-18T01:40:01.017Z,3.3
2023-05-18T01:42:04.041Z,3.3
2023-05-18T01:44:10.025Z,3.3
2023-05-18T01:46:09.993Z,3.3
2023-05-18T01:48:01.919Z,3.3
2023-05-18T01:50:03.480Z,3.2
2023-05-18T01:52:06.689Z,3.2
2023-05-18T01:54:06.283Z,3.2
2023-05-18T01:56:04.005Z,3.2
2023-05-18T01:58:01.929Z,3.1
2023-05-18T02:00:01.930Z,3.1
2023-05-18T02:02:02.035Z,3.1
2023-05-18T02:04:00.656Z,3.1
2023-05-18T02:06:00.445Z,3.1
2023-05-18T02:08:00.402Z,3.1
2023-05-18T02:10:00.688Z,3.1
2023-05-18T02:12:00.504Z,3.0
2023-05-18T02:14:00.848Z,3.0
2023-05-18T02:16:02.174Z,3.1
2023-05-18T02:18:00.609Z,3.1
2023-05-18T02:20:00.643Z,3.1
2023-05-18T02:22:00.797Z,3.1
2023-05-18T02:24:00.378Z,3.1
2023-05-18T02:26:00.687Z,3.1
2023-05-18T02:28:00.930Z,3.1
2023-05-18T02:30:00.521Z,3.1
2023-05-18T02:32:00.488Z,3.1
2023-05-18T02:34:00.848Z,3.1
2023-05-18T02:36:00.453Z,3.1
2023-05-18T02:38:00.387Z,3.1
2023-05-18T02:40:00.823Z,3.0
2023-05-18T02:42:01.458Z,3.0
2023-05-18T02:44:00.699Z,3.0
2023-05-18T02:46:00.946Z,2.9
2023-05-18T02:48:00.507Z,2.9
2023-05-18T02:50:00.588Z,2.9
2023-05-18T02:52:00.682Z,2.9
2023-05-18T02:54:00.399Z,2.9
2023-05-18T02:56:00.488Z,2.8
2023-05-18T02:58:00.687Z,2.8
2023-05-18T03:00:01.037Z,2.8
2023-05-18T03:02:00.410Z,2.8
2023-05-18T03:04:00.695Z,2.7
2023-05-18T03:06:00.558Z,2.8
2023-05-18T03:08:00.386Z,2.8
2023-05-18T03:10:01.650Z,2.8
2023-05-18T03:12:01.493Z,2.8
2023-05-18T03:14:00.416Z,2.9
2023-05-18T03:16:00.806Z,2.8
2023-05-18T03:18:00.449Z,2.7
2023-05-18T03:20:00.408Z,2.8
2023-05-18T03:22:00.575Z,2.8
2023-05-18T03:24:00.776Z,2.7
2023-05-18T03:26:00.537Z,2.7
2023-05-18T03:28:00.848Z,2.7
2023-05-18T03:30:00.709Z,2.8
2023-05-18T03:32:00.507Z,2.7
2023-05-18T03:34:00.839Z,2.6
2023-05-18T03:36:02.496Z,2.6
2023-05-18T03:38:00.484Z,2.6
2023-05-18T03:40:08.849Z,2.5
2023-05-18T03:42:01.175Z,2.5
2023-05-18T03:44:01.568Z,2.5
2023-05-18T03:46:00.957Z,2.6
2023-05-18T03:48:00.431Z,2.6
2023-05-18T03:50:00.871Z,2.6
2023-05-18T03:52:02.691Z,2.5
2023-05-18T03:54:00.407Z,2.5
2023-05-18T03:56:00.583Z,2.5
2023-05-18T03:58:00.992Z,2.6
2023-05-18T04:00:00.417Z,2.6
2023-05-18T04:02:00.571Z,2.6
2023-05-18T04:04:00.886Z,2.7
2023-05-18T04:06:00.468Z,2.6
2023-05-18T04:08:00.477Z,2.7
2023-05-18T04:10:00.889Z,2.7
2023-05-18T04:12:00.679Z,2.7
2023-05-18T04:14:01.312Z,2.7
2023-05-18T04:16:00.748Z,2.7
2023-05-18T04:18:00.612Z,2.7
2023-05-18T04:20:00.687Z,2.8
2023-05-18T04:22:00.903Z,2.8
2023-05-18T04:24:00.552Z,2.8
2023-05-18T04:26:00.842Z,2.9
2023-05-18T04:28:01.935Z,3.0
2023-05-18T04:30:00.421Z,3.0
2023-05-18T04:32:00.814Z,3.1
2023-05-18T04:34:00.488Z,3.1
2023-05-18T04:36:00.422Z,3.1
2023-05-18T04:38:00.570Z,3.2
2023-05-18T04:40:01.370Z,3.3
2023-05-18T04:42:00.615Z,3.4
2023-05-18T04:44:00.993Z,3.4
2023-05-18T04:46:00.421Z,3.5
2023-05-18T04:48:00.488Z,3.5
2023-05-18T04:50:00.547Z,3.5
2023-05-18T04:52:00.858Z,3.5
2023-05-18T04:54:00.598Z,3.7
2023-05-18T04:56:01.117Z,3.8
2023-05-18T04:58:00.509Z,3.9
2023-05-18T05:00:00.883Z,3.9
2023-05-18T05:02:00.530Z,4.0
2023-05-18T05:04:00.915Z,4.1
2023-05-18T05:06:00.421Z,4.2
2023-05-18T05:08:00.886Z,4.3
2023-05-18T05:10:00.404Z,4.4
2023-05-18T05:12:00.902Z,4.5
2023-05-18T05:14:00.852Z,4.6
2023-05-18T05:16:00.714Z,4.6
2023-05-18T05:18:00.688Z,4.7
2023-05-18T05:20:00.663Z,4.8
2023-05-18T05:22:00.978Z,4.8
2023-05-18T05:24:00.618Z,4.8
2023-05-18T05:26:00.718Z,4.8
2023-05-18T05:28:00.905Z,4.9
2023-05-18T05:30:00.436Z,5.0
2023-05-18T05:32:00.558Z,5.1
2023-05-18T05:34:00.794Z,5.2
2023-05-18T05:36:00.773Z,5.3
2023-05-18T05:38:00.546Z,5.3
2023-05-18T05:40:01.038Z,5.4
2023-05-18T05:42:00.623Z,5.4
2023-05-18T05:44:00.550Z,5.3
2023-05-18T05:46:00.673Z,5.4
2023-05-18T05:48:01.031Z,5.6
2023-05-18T05:50:00.404Z,5.6
2023-05-18T05:52:00.878Z,5.6
2023-05-18T05:54:01.964Z,5.7
2023-05-18T05:56:00.439Z,5.8
2023-05-18T05:58:00.500Z,5.9
2023-05-18T06:00:00.477Z,5.9
2023-05-18T06:02:00.478Z,6.0
2023-05-18T06:04:01.458Z,6.0
2023-05-18T06:06:01.046Z,6.1
2023-05-18T06:08:00.394Z,6.1
2023-05-18T06:10:00.791Z,6.2
2023-05-18T06:12:00.645Z,6.2
2023-05-18T06:14:00.431Z,6.3
2023-05-18T06:16:01.042Z,6.3
2023-05-18T06:18:00.930Z,6.2
2023-05-18T06:20:00.425Z,6.4
2023-05-18T06:22:00.573Z,6.5
2023-05-18T06:24:00.398Z,6.6
2023-05-18T06:26:01.123Z,6.7
2023-05-18T06:28:01.052Z,6.8
2023-05-18T06:30:00.510Z,6.9
2023-05-18T06:32:01.554Z,6.7
2023-05-18T06:34:00.516Z,6.8
2023-05-18T06:36:00.444Z,7.1
2023-05-18T06:38:01.023Z,7.2
2023-05-18T06:40:00.758Z,7.1
2023-05-18T06:42:00.541Z,7.2
2023-05-18T06:44:00.572Z,7.2
2023-05-18T06:46:00.560Z,7.3
2023-05-18T06:48:00.618Z,7.5
2023-05-18T06:50:00.560Z,7.6
2023-05-18T06:52:00.907Z,7.8
2023-05-18T06:54:00.425Z,8.0
2023-05-18T06:56:00.398Z,8.1
2023-05-18T06:58:00.558Z,8.3
2023-05-18T07:00:00.403Z,8.4
2023-05-18T07:02:00.685Z,8.3
2023-05-18T07:04:01.221Z,8.4
2023-05-18T07:06:01.617Z,8.5
2023-05-18T07:08:00.724Z,8.7
2023-05-18T07:10:00.408Z,8.8
2023-05-18T07:12:00.818Z,8.8
2023-05-18T07:14:01.013Z,8.9
2023-05-18T07:16:00.967Z,9.1
2023-05-18T07:18:01.064Z,9.1
2023-05-18T07:20:00.412Z,9.1
2023-05-18T07:22:00.563Z,9.1
2023-05-18T07:24:00.722Z,9.2
2023-05-18T07:26:00.955Z,9.3
2023-05-18T07:28:01.077Z,9.5
2023-05-18T07:30:00.683Z,9.5
2023-05-18T07:32:00.972Z,9.7
2023-05-18T07:34:00.827Z,9.8
2023-05-18T07:36:00.654Z,9.6
2023-05-18T07:38:00.432Z,9.6
2023-05-18T07:40:01.030Z,9.8
2023-05-18T07:42:00.845Z,10.2
2023-05-18T07:44:00.635Z,10.3
2023-05-18T07:46:00.995Z,10.4
2023-05-18T07:48:00.589Z,10.5
2023-05-18T07:50:00.709Z,10.5
2023-05-18T07:52:00.900Z,10.8
2023-05-18T07:54:01.071Z,11.0
2023-05-18T07:56:00.413Z,10.7
2023-05-18T07:58:00.669Z,10.9
2023-05-18T08:00:00.415Z,11.2
2023-05-18T08:02:00.701Z,11.3
2023-05-18T08:04:00.925Z,11.2
2023-05-18T08:06:00.901Z,11.3
2023-05-18T08:08:00.462Z,11.4
2023-05-18T08:10:00.642Z,11.6
2023-05-18T08:12:00.690Z,11.8
2023-05-18T08:14:00.442Z,11.8
2023-05-18T08:16:11.011Z,11.8
2023-05-18T08:18:00.943Z,12.1
2023-05-18T08:20:01.076Z,12.1
2023-05-18T08:22:00.601Z,12.3
2023-05-18T08:24:01.795Z,12.5
2023-05-18T08:26:00.865Z,12.6
2023-05-18T08:28:00.804Z,12.6
2023-05-18T08:30:00.605Z,12.1
2023-05-18T08:32:00.532Z,12.3
2023-05-18T08:34:00.495Z,12.3
2023-05-18T08:36:00.548Z,12.0
2023-05-18T08:38:00.593Z,12.4
2023-05-18T08:40:00.782Z,12.7
2023-05-18T08:42:02.244Z,12.7
2023-05-18T08:44:05.038Z,12.6
2023-05-18T08:46:03.941Z,12.8
2023-05-18T08:48:02.410Z,12.9
2023-05-18T08:50:01.271Z,13.0
2023-05-18T08:52:03.752Z,13.1
2023-05-18T08:54:02.011Z,13.1
2023-05-18T08:56:01.327Z,13.2
2023-05-18T08:58:01.939Z,13.4
2023-05-18T09:00:01.790Z,13.4
2023-05-18T09:02:01.177Z,13.4
2023-05-18T09:04:01.462Z,13.5
2023-05-18T09:06:02.264Z,13.5
2023-05-18T09:08:01.497Z,13.6
2023-05-18T09:10:02.011Z,13.7
2023-05-18T09:12:01.758Z,13.8
2023-05-18T09:14:01.600Z,13.4
2023-05-18T09:16:00.884Z,13.4
2023-05-18T09:18:00.474Z,13.4
2023-05-18T09:20:00.499Z,13.3
2023-05-18T09:22:00.981Z,13.0
2023-05-18T09:24:00.664Z,12.9
2023-05-18T09:26:01.571Z,13.1
2023-05-18T09:28:01.190Z,13.6
2023-05-18T09:30:00.580Z,14.1
2023-05-18T09:32:01.986Z,14.1
2023-05-18T09:34:00.665Z,14.0
2023-05-18T09:36:00.490Z,13.5
2023-05-18T09:38:02.890Z,13.6
2023-05-18T09:40:03.218Z,13.5
2023-05-18T09:42:02.581Z,13.3
2023-05-18T09:44:00.452Z,13.5
2023-05-18T09:46:05.761Z,13.8
2023-05-18T09:48:00.956Z,14.1
2023-05-18T09:50:00.510Z,14.3
2023-05-18T09:52:01.708Z,14.6
2023-05-18T09:54:00.614Z,15.1
2023-05-18T09:56:03.727Z,15.1
2023-05-18T09:58:01.171Z,15.2
2023-05-18T10:00:02.939Z,15.3
2023-05-18T10:02:02.742Z,15.4
2023-05-18T10:04:02.578Z,15.3
2023-05-18T10:06:02.674Z,15.6
2023-05-18T10:08:00.931Z,15.6
2023-05-18T10:10:02.128Z,15.6
2023-05-18T10:12:01.345Z,15.8
2023-05-18T10:14:00.845Z,15.8
2023-05-18T10:16:03.092Z,15.7
2023-05-18T10:18:02.734Z,15.9
2023-05-18T10:20:01.594Z,15.8
2023-05-18T10:22:01.942Z,15.8
2023-05-18T10:24:02.925Z,15.6
2023-05-18T10:26:04.534Z,15.8
2023-05-18T10:28:06.293Z,15.6
2023-05-18T10:30:00.934Z,15.6
2023-05-18T10:32:04.435Z,15.4
2023-05-18T10:34:01.506Z,15.6
2023-05-18T10:36:02.398Z,15.4
2023-05-18T10:38:01.013Z,15.3
2023-05-18T10:40:02.271Z,16.0
2023-05-18T10:42:01.917Z,16.0
2023-05-18T10:44:01.293Z,16.2
2023-05-18T10:46:00.864Z,16.6
2023-05-18T10:48:03.473Z,17.1
2023-05-18T10:50:04.136Z,16.6
2023-05-18T10:52:02.704Z,16.9
2023-05-18T10:54:10.830Z,16.6
2023-05-18T10:56:00.658Z,16.5
2023-05-18T10:58:04.098Z,15.9
2023-05-18T11:00:03.794Z,15.9
2023-05-18T11:02:01.051Z,16.2
2023-05-18T11:04:02.204Z,16.4
2023-05-18T11:06:03.909Z,15.7
2023-05-18T11:08:01.892Z,15.6
2023-05-18T11:10:01.530Z,16.0
2023-05-18T11:12:00.950Z,16.4
2023-05-18T11:14:01.766Z,16.4
2023-05-18T11:16:02.652Z,16.4
2023-05-18T11:18:12.184Z,17.0
2023-05-18T11:20:12.404Z,17.6
2023-05-18T11:22:10.737Z,17.8
2023-05-18T11:24:18.431Z,18.0
2023-05-18T11:26:01.036Z,18.1
2023-05-18T11:28:02.947Z,17.0
2023-05-18T11:30:14.636Z,16.6
2023-05-18T11:32:01.510Z,15.8
2023-05-18T11:34:20.200Z,16.0
2023-05-18T11:36:04.186Z,16.2
2023-05-18T11:38:05.813Z,16.9
2023-05-18T11:40:03.855Z,16.6
2023-05-18T11:42:01.683Z,16.9
2023-05-18T11:44:14.253Z,17.4
2023-05-18T11:46:00.962Z,17.6
2023-05-18T11:48:01.267Z,17.6
2023-05-18T11:50:01.293Z,17.9
2023-05-18T11:52:05.302Z,18.5
2023-05-18T11:54:00.629Z,18.8
2023-05-18T11:56:01.108Z,18.5
2023-05-18T11:58:01.042Z,17.3
2023-05-18T12:00:04.859Z,16.0
2023-05-18T12:02:01.733Z,16.0
2023-05-18T12:04:02.572Z,16.7
2023-05-18T12:06:00.751Z,17.2
2023-05-18T12:08:01.703Z,17.6
2023-05-18T12:10:03.665Z,17.8
2023-05-18T12:12:00.491Z,17.4
2023-05-18T12:14:01.405Z,16.7
2023-05-18T12:16:01.314Z,16.7
2023-05-18T12:18:00.606Z,16.2
2023-05-18T12:20:00.769Z,16.3
2023-05-18T12:22:00.586Z,16.3
2023-05-18T12:24:00.650Z,16.9
2023-05-18T12:26:01.030Z,17.5
2023-05-18T12:28:00.767Z,18.1
2023-05-18T12:30:00.530Z,18.3
2023-05-18T12:32:05.102Z,17.5
2023-05-18T12:34:01.050Z,17.2
2023-05-18T12:36:00.605Z,16.7
2023-05-18T12:38:00.996Z,16.5
2023-05-18T12:40:00.808Z,17.3
2023-05-18T12:42:08.740Z,17.9
2023-05-18T12:44:00.408Z,18.1
2023-05-18T12:46:01.402Z,18.8
2023-05-18T12:48:03.588Z,17.9
2023-05-18T12:50:01.960Z,17.6
2023-05-18T12:52:07.834Z,16.4
2023-05-18T12:54:00.938Z,16.3
2023-05-18T12:56:00.650Z,16.4
2023-05-18T12:58:02.276Z,17.1
2023-05-18T13:00:00.549Z,17.7
2023-05-18T13:02:00.730Z,17.6
2023-05-18T13:04:00.893Z,17.2
2023-05-18T13:06:02.583Z,18.4
2023-05-18T13:08:00.409Z,18.6
2023-05-18T13:10:00.945Z,19.0
2023-05-18T13:12:07.444Z,18.9
2023-05-18T13:14:02.390Z,18.7
2023-05-18T13:16:00.945Z,19.0
2023-05-18T13:18:01.897Z,19.5
2023-05-18T13:20:00.624Z,19.4
2023-05-18T13:22:00.556Z,19.5
2023-05-18T13:24:01.253Z,19.5
2023-05-18T13:26:00.608Z,19.5
2023-05-18T13:28:00.964Z,19.4
2023-05-18T13:30:00.962Z,18.9
2023-05-18T13:32:00.590Z,18.9
2023-05-18T13:34:00.390Z,18.9
2023-05-18T13:36:00.643Z,19.1
2023-05-18T13:38:00.589Z,19.2
2023-05-18T13:40:00.933Z,19.5
2023-05-18T13:42:00.779Z,19.2
2023-05-18T13:44:00.974Z,19.8
2023-05-18T13:46:01.024Z,19.9
2023-05-18T13:48:00.980Z,19.9
2023-05-18T13:50:00.400Z,19.5
2023-05-18T13:52:00.749Z,19.8
2023-05-18T13:54:01.057Z,19.9
2023-05-18T13:56:00.689Z,20.2
2023-05-18T13:58:00.638Z,20.5
2023-05-18T14:00:00.573Z,20.5
2023-05-18T14:02:01.047Z,19.4
2023-05-18T14:04:00.806Z,19.1
2023-05-18T14:06:01.374Z,19.6
2023-05-18T14:08:00.547Z,19.4
2023-05-18T14:10:00.639Z,19.4
2023-05-18T14:12:00.439Z,19.6
2023-05-18T14:14:00.866Z,19.6
2023-05-18T14:16:01.008Z,19.3
2023-05-18T14:18:00.464Z,19.7
2023-05-18T14:20:00.642Z,19.8
2023-05-18T14:22:00.582Z,19.9
2023-05-18T14:24:00.413Z,19.6
2023-05-18T14:26:00.857Z,19.6
2023-05-18T14:28:00.859Z,19.8
2023-05-18T14:30:00.543Z,19.3
2023-05-18T14:32:00.652Z,19.7
2023-05-18T14:34:00.507Z,19.8
2023-05-18T14:36:00.589Z,19.3
2023-05-18T14:38:00.860Z,19.9
2023-05-18T14:40:01.280Z,19.5
2023-05-18T14:42:00.644Z,19.2
2023-05-18T14:44:00.672Z,19.5
2023-05-18T14:46:08.687Z,19.8
2023-05-18T14:48:00.840Z,19.9
2023-05-18T14:50:01.492Z,20.1
2023-05-18T14:52:00.814Z,20.1
2023-05-18T14:54:00.421Z,19.9
2023-05-18T14:56:00.865Z,19.8
2023-05-18T14:58:00.665Z,19.5
2023-05-18T15:00:00.667Z,19.7
2023-05-18T15:02:00.721Z,20.0
2023-05-18T15:04:01.157Z,19.8
2023-05-18T15:06:01.039Z,20.1
2023-05-18T15:08:00.548Z,20.1
2023-05-18T15:10:00.755Z,20.2
2023-05-18T15:12:00.499Z,20.3
2023-05-18T15:14:00.703Z,19.8
2023-05-18T15:16:00.992Z,19.9
2023-05-18T15:18:01.290Z,19.9
2023-05-18T15:20:00.430Z,19.8
2023-05-18T15:22:00.566Z,19.2
2023-05-18T15:24:00.409Z,19.2
2023-05-18T15:26:00.413Z,19.2
2023-05-18T15:28:00.756Z,19.2
2023-05-18T15:30:00.792Z,19.3
2023-05-18T15:32:00.680Z,19.4
2023-05-18T15:34:00.399Z,19.5
2023-05-18T15:36:00.793Z,19.9
2023-05-18T15:38:00.940Z,19.8
2023-05-18T15:40:01.085Z,19.6
2023-05-18T15:42:00.924Z,19.2
2023-05-18T15:44:00.712Z,19.0
2023-05-18T15:46:00.504Z,19.4
2023-05-18T15:48:00.941Z,19.5
2023-05-18T15:50:00.661Z,19.5
2023-05-18T15:52:00.800Z,19.1
2023-05-18T15:54:00.837Z,18.5
2023-05-18T15:56:01.053Z,18.1
2023-05-18T15:58:00.673Z,18.4
2023-05-18T16:00:01.008Z,18.7
2023-05-18T16:02:00.405Z,18.4
2023-05-18T16:04:01.215Z,18.0
2023-05-18T16:06:00.562Z,18.3
2023-05-18T16:08:00.566Z,18.2
2023-05-18T16:10:00.599Z,18.2
2023-05-18T16:12:00.780Z,18.2
2023-05-18T16:14:00.728Z,18.0
2023-05-18T16:16:01.910Z,17.0
2023-05-18T16:18:01.217Z,17.2
2023-05-18T16:20:03.391Z,17.1
2023-05-18T16:22:00.534Z,17.1
2023-05-18T16:24:00.420Z,16.9
2023-05-18T16:26:00.658Z,16.8
2023-05-18T16:28:00.785Z,16.9
2023-05-18T16:30:00.836Z,16.9
2023-05-18T16:32:00.631Z,16.8
2023-05-18T16:34:00.510Z,16.7
2023-05-18T16:36:01.207Z,16.6
2023-05-18T16:38:00.996Z,16.3
2023-05-18T16:40:00.816Z,16.1
2023-05-18T16:42:01.114Z,16.4
2023-05-18T16:44:00.514Z,16.3
2023-05-18T16:46:00.721Z,16.1
2023-05-18T16:48:00.693Z,16.3
2023-05-18T16:50:00.858Z,16.0
2023-05-18T16:52:00.753Z,15.8
2023-05-18T16:54:00.829Z,15.8
2023-05-18T16:56:00.945Z,15.8
2023-05-18T16:58:00.639Z,15.7
2023-05-18T17:00:00.427Z,15.6
2023-05-18T17:02:00.610Z,15.5
2023-05-18T17:04:00.762Z,15.4
2023-05-18T17:06:00.713Z,15.4
2023-05-18T17:08:00.590Z,15.2
2023-05-18T17:10:00.656Z,15.3
2023-05-18T17:12:00.521Z,15.3
2023-05-18T17:14:00.381Z,15.3
2023-05-18T17:16:00.820Z,15.3
2023-05-18T17:18:00.748Z,15.2
2023-05-18T17:20:00.385Z,15.1
2023-05-18T17:22:00.671Z,15.1
2023-05-18T17:24:01.000Z,15.1
2023-05-18T17:26:06.313Z,14.9
2023-05-18T17:28:00.821Z,14.8
2023-05-18T17:30:00.567Z,14.7
2023-05-18T17:32:00.771Z,14.8
2023-05-18T17:34:00.463Z,14.6
2023-05-18T17:36:01.030Z,14.6
2023-05-18T17:38:00.423Z,14.5
2023-05-18T17:40:03.328Z,14.4
2023-05-18T17:42:00.585Z,14.5
2023-05-18T17:44:00.631Z,14.4
2023-05-18T17:46:00.992Z,14.3
2023-05-18T17:48:00.426Z,14.4
2023-05-18T17:50:00.648Z,14.4
2023-05-18T17:52:00.864Z,14.4
2023-05-18T17:54:00.578Z,14.3
2023-05-18T17:56:00.634Z,14.2
2023-05-18T17:58:00.470Z,14.3
2023-05-18T18:00:00.872Z,14.2
2023-05-18T18:02:00.566Z,14.1
2023-05-18T18:04:01.042Z,13.9
2023-05-18T18:06:00.843Z,14.0
2023-05-18T18:08:00.600Z,13.9
2023-05-18T18:10:00.446Z,13.8
2023-05-18T18:12:00.560Z,13.6
2023-05-18T18:14:01.030Z,13.6
2023-05-18T18:16:00.921Z,13.5
2023-05-18T18:18:00.551Z,13.5
2023-05-18T18:20:00.394Z,13.4
2023-05-18T18:22:00.539Z,13.4
2023-05-18T18:24:00.649Z,13.3
2023-05-18T18:26:01.680Z,13.3
2023-05-18T18:28:00.877Z,13.2
2023-05-18T18:30:00.687Z,13.1
2023-05-18T18:32:00.833Z,13.1
2023-05-18T18:34:00.534Z,13.1
2023-05-18T18:36:01.000Z,13.0
2023-05-18T18:38:00.572Z,13.0
2023-05-18T18:40:00.863Z,12.9
2023-05-18T18:42:00.844Z,12.8
2023-05-18T18:44:00.422Z,12.8
2023-05-18T18:46:00.689Z,12.7
2023-05-18T18:48:00.926Z,12.6
2023-05-18T18:50:00.405Z,12.6
2023-05-18T18:52:00.790Z,12.6
2023-05-18T18:54:00.666Z,12.5
2023-05-18T18:56:00.414Z,12.5
2023-05-18T18:58:00.523Z,12.4
2023-05-18T19:00:00.434Z,12.4
2023-05-18T19:02:00.650Z,12.3
2023-05-18T19:04:00.830Z,12.2
2023-05-18T19:06:00.613Z,12.1
2023-05-18T19:08:00.575Z,12.1
2023-05-18T19:10:00.962Z,11.9
2023-05-18T19:12:00.805Z,11.8
2023-05-18T19:14:00.429Z,11.8
2023-05-18T19:16:01.007Z,11.8
2023-05-18T19:18:00.638Z,11.8
2023-05-18T19:20:00.882Z,11.8
2023-05-18T19:22:00.669Z,11.8
2023-05-18T19:24:00.796Z,11.7
2023-05-18T19:26:00.855Z,11.7
2023-05-18T19:28:00.789Z,11.6
2023-05-18T19:30:02.562Z,11.6
2023-05-18T19:32:00.925Z,11.6
2023-05-18T19:34:00.458Z,11.5
2023-05-18T19:36:01.906Z,11.4
2023-05-18T19:38:00.461Z,11.4
2023-05-18T19:40:00.773Z,11.4
2023-05-18T19:42:00.660Z,11.3
2023-05-18T19:46:00.649Z,11.2
2023-05-18T19:48:01.047Z,11.2
2023-05-18T19:50:00.738Z,11.1
2023-05-18T19:52:00.914Z,11.1
2023-05-18T19:54:00.570Z,11.0
2023-05-18T19:56:00.410Z,10.9
2023-05-18T19:58:00.562Z,10.8
2023-05-18T20:00:00.958Z,10.7
2023-05-18T20:02:00.733Z,10.6
2023-05-18T20:04:01.111Z,10.5
2023-05-18T20:06:00.476Z,10.4
2023-05-18T20:08:00.599Z,10.3
2023-05-18T20:10:00.582Z,10.2
2023-05-18T20:12:01.270Z,10.2
2023-05-18T20:14:00.881Z,10.1
2023-05-18T20:16:00.820Z,10.4
2023-05-18T20:18:00.538Z,10.6
2023-05-18T20:20:00.564Z,10.5
2023-05-18T20:22:00.578Z,10.4
2023-05-18T20:24:01.129Z,10.2
2023-05-18T20:26:00.414Z,10.1
2023-05-18T20:28:01.500Z,9.8
2023-05-18T20:30:00.415Z,9.7
2023-05-18T20:32:00.717Z,9.6
2023-05-18T20:34:00.480Z,9.5
2023-05-18T20:36:01.088Z,9.5
2023-05-18T20:38:01.666Z,9.5
2023-05-18T20:40:01.096Z,9.5
2023-05-18T20:42:00.570Z,9.5
2023-05-18T20:44:00.815Z,9.4
2023-05-18T20:46:00.829Z,9.4
2023-05-18T20:48:00.782Z,9.3
2023-05-18T20:50:00.884Z,9.2
2023-05-18T20:52:01.034Z,9.1
2023-05-18T20:54:00.408Z,9.2
2023-05-18T20:56:00.900Z,9.1
2023-05-18T20:58:00.384Z,9.1
2023-05-18T21:00:00.425Z,9.0
2023-05-18T21:02:00.694Z,8.9
2023-05-18T21:04:00.949Z,8.8
2023-05-18T21:06:01.055Z,8.6
2023-05-18T21:08:00.979Z,8.6
2023-05-18T21:10:01.317Z,8.6
2023-05-18T21:12:00.550Z,8.7
2023-05-18T21:14:00.513Z,8.7
2023-05-18T21:16:00.905Z,8.7
2023-05-18T21:18:00.605Z,8.5
2023-05-18T21:20:00.879Z,8.5
2023-05-18T21:22:00.638Z,8.5
2023-05-18T21:24:00.951Z,8.4
2023-05-18T21:26:00.521Z,8.5
2023-05-18T21:28:00.939Z,8.5
2023-05-18T21:30:00.730Z,8.5
2023-05-18T21:32:01.191Z,8.4
2023-05-18T21:34:00.429Z,8.3
2023-05-18T21:36:00.496Z,8.3
2023-05-18T21:38:00.412Z,8.2
2023-05-18T21:40:00.953Z,8.2
2023-05-18T21:42:00.964Z,8.1
2023-05-18T21:44:00.418Z,8.1
2023-05-18T21:46:00.763Z,8.1
2023-05-18T21:48:01.007Z,8.1
2023-05-18T21:50:00.412Z,8.0
2023-05-18T21:52:00.863Z,8.0
2023-05-18T21:54:01.643Z,8.0
2023-05-18T21:56:01.116Z,7.9
2023-05-18T21:58:00.427Z,7.9
2023-05-18T22:00:00.919Z,7.8
2023-05-18T22:02:00.532Z,7.7
2023-05-18T22:04:00.805Z,7.7
2023-05-18T22:06:00.518Z,7.7
2023-05-18T22:08:00.771Z,7.7
2023-05-18T22:10:00.578Z,7.7
2023-05-18T22:12:00.524Z,7.6
2023-05-18T22:14:00.464Z,7.6
2023-05-18T22:16:01.187Z,7.6
2023-05-18T22:18:01.021Z,7.6
2023-05-18T22:20:00.951Z,7.6
2023-05-18T22:22:00.960Z,7.6
2023-05-18T22:24:00.459Z,7.5
2023-05-18T22:26:00.772Z,7.5
2023-05-18T22:28:00.851Z,7.5
2023-05-18T22:30:00.550Z,7.4
2023-05-18T22:32:00.607Z,7.3
2023-05-18T22:34:00.690Z,7.4
2023-05-18T22:36:00.681Z,7.3
2023-05-18T22:38:01.004Z,7.3
2023-05-18T22:40:00.860Z,7.3
2023-05-18T22:42:00.423Z,7.2
2023-05-18T22:44:00.386Z,7.2
2023-05-18T22:46:01.097Z,7.2
2023-05-18T22:48:00.920Z,7.1
2023-05-18T22:50:00.904Z,7.1
2023-05-18T22:52:01.479Z,7.1
2023-05-18T22:54:00.495Z,7.0
2023-05-18T22:56:01.240Z,7.0
2023-05-18T22:58:00.521Z,7.0
2023-05-18T23:00:00.604Z,7.0
2023-05-18T23:02:00.957Z,7.0
2023-05-18T23:04:01.038Z,7.0
2023-05-18T23:06:00.581Z,7.0
2023-05-18T23:08:00.656Z,6.9
2023-05-18T23:10:00.559Z,6.9
2023-05-18T23:14:00.719Z,6.8
2023-05-18T23:16:01.083Z,6.7
2023-05-18T23:18:00.906Z,6.7
2023-05-18T23:20:01.169Z,6.7
2023-05-18T23:22:01.171Z,6.6
2023-05-18T23:24:00.391Z,6.6
2023-05-18T23:26:00.610Z,6.6
2023-05-18T23:28:00.804Z,6.6
2023-05-18T23:30:00.406Z,6.5
2023-05-18T23:32:01.491Z,6.5
2023-05-18T23:34:00.694Z,6.5
2023-05-18T23:36:00.799Z,6.9
2023-05-18T23:38:01.982Z,7.3
2023-05-18T23:40:01.743Z,7.5
2023-05-18T23:42:01.590Z,7.4
2023-05-18T23:44:01.131Z,7.2
2023-05-18T23:46:01.202Z,7.0
2023-05-18T23:48:00.862Z,6.8
2023-05-18T23:50:01.176Z,6.7
2023-05-18T23:52:02.719Z,6.6
2023-05-18T23:54:02.945Z,6.5
2023-05-18T23:56:01.657Z,6.4
2023-05-18T23:58:01.588Z,6.4
